createdAt,value
2019-05-10T00:01:09.289Z,13.53
2019-05-10T00:03:58.882Z,9.97
2019-05-10T00:06:48.712Z,11.80
2019-05-10T00:09:19.701Z,11.23
2019-05-10T00:12:05.254Z,11.57
2019-05-10T00:15:02.022Z,10.23
2019-05-10T00:17:33.932Z,10.23
2019-05-10T00:20:06.418Z,13.23
2019-05-10T00:22:38.598Z,12.03
2019-05-10T00:25:10.948Z,11.97
2019-05-10T00:27:42.826Z,14.20
2019-05-10T00:30:15.053Z,14.20
2019-05-10T00:32:47.406Z,14.33
2019-05-10T00:35:19.547Z,13.23
2019-05-10T00:37:51.729Z,11.03
2019-05-10T00:40:24.038Z,12.80
2019-05-10T00:42:56.888Z,14.40
2019-05-10T00:45:29.319Z,12.63
2019-05-10T00:48:01.444Z,11.80
2019-05-10T00:50:33.328Z,12.97
2019-05-10T00:53:05.344Z,12.87
2019-05-10T00:55:37.521Z,11.77
2019-05-10T00:58:09.495Z,12.60
2019-05-10T01:00:41.750Z,14.83
2019-05-10T01:03:14.580Z,15.37
2019-05-10T01:05:46.525Z,14.27
2019-05-10T01:08:18.651Z,15.10
2019-05-10T01:10:50.661Z,14.07
2019-05-10T01:13:23.049Z,13.77
2019-05-10T01:15:55.345Z,14.00
2019-05-10T01:18:27.488Z,13.50
2019-05-10T01:20:59.549Z,16.10
2019-05-10T01:23:31.638Z,14.83
2019-05-10T01:26:03.848Z,16.07
2019-05-10T01:28:36.121Z,15.87
2019-05-10T01:31:08.278Z,14.13
2019-05-10T01:33:41.402Z,14.97
2019-05-10T01:36:13.529Z,15.53
2019-05-10T01:38:45.828Z,13.80
2019-05-10T01:41:17.825Z,14.27
2019-05-10T01:43:49.898Z,15.33
2019-05-10T01:46:22.171Z,16.70
2019-05-10T01:48:54.358Z,14.37
2019-05-10T01:51:28.020Z,15.83
2019-05-10T01:54:00.309Z,15.20
2019-05-10T01:56:32.625Z,17.20
2019-05-10T01:59:04.687Z,17.90
2019-05-10T02:01:37.017Z,15.70
2019-05-10T02:04:09.702Z,15.30
2019-05-10T02:06:41.845Z,15.30
2019-05-10T02:09:14.265Z,14.20
2019-05-10T02:11:46.619Z,15.73
2019-05-10T02:14:18.779Z,15.23
2019-05-10T02:16:50.858Z,21.63
2019-05-10T02:19:22.874Z,15.70
2019-05-10T02:21:55.015Z,17.03
2019-05-10T02:24:27.567Z,15.20
2019-05-10T02:26:59.502Z,15.13
2019-05-10T02:29:31.673Z,16.27
2019-05-10T02:32:03.781Z,17.43
2019-05-10T02:34:36.038Z,17.73
2019-05-10T02:37:08.057Z,15.93
2019-05-10T02:39:40.329Z,16.33
2019-05-10T02:42:12.309Z,17.70
2019-05-10T02:44:44.488Z,15.83
2019-05-10T02:47:16.627Z,15.70
2019-05-10T02:49:48.912Z,14.77
2019-05-10T02:52:21.009Z,17.33
2019-05-10T02:54:53.896Z,19.90
2019-05-10T02:57:26.238Z,16.40
2019-05-10T03:00:01.967Z,16.67
2019-05-10T03:02:35.571Z,17.07
2019-05-10T03:05:07.740Z,16.53
2019-05-10T03:07:40.242Z,19.00
2019-05-10T03:10:13.194Z,17.47
2019-05-10T03:12:45.336Z,16.47
2019-05-10T03:15:17.542Z,16.67
2019-05-10T03:17:51.059Z,17.27
2019-05-10T03:20:23.460Z,16.60
2019-05-10T03:22:56.467Z,16.50
2019-05-10T03:25:29.042Z,15.30
2019-05-10T03:28:01.136Z,16.37
2019-05-10T03:30:33.801Z,17.93
2019-05-10T03:33:05.948Z,16.80
2019-05-10T03:35:38.052Z,16.50
2019-05-10T03:38:10.363Z,17.47
2019-05-10T03:40:42.734Z,19.27
2019-05-10T03:43:14.902Z,22.07
2019-05-10T03:45:47.978Z,18.43
2019-05-10T03:48:20.429Z,16.30
2019-05-10T03:50:52.663Z,17.40
2019-05-10T03:53:25.214Z,17.13
2019-05-10T03:55:57.599Z,17.13
2019-05-10T03:58:29.714Z,17.53
2019-05-10T04:01:01.921Z,16.77
2019-05-10T04:03:34.263Z,17.03
2019-05-10T04:06:06.483Z,17.30
2019-05-10T04:08:38.627Z,18.77
2019-05-10T04:11:10.915Z,18.90
2019-05-10T04:13:42.899Z,18.53
2019-05-10T04:16:15.198Z,19.03
2019-05-10T04:18:47.749Z,21.00
2019-05-10T04:21:19.953Z,18.83
2019-05-10T04:23:51.937Z,19.97
2019-05-10T04:26:24.049Z,18.50
2019-05-10T04:28:56.232Z,19.80
2019-05-10T04:31:28.337Z,19.73
2019-05-10T04:34:00.433Z,19.13
2019-05-10T04:36:32.278Z,20.57
2019-05-10T04:39:06.288Z,20.33
2019-05-10T04:41:38.298Z,20.80
2019-05-10T04:44:10.328Z,20.37
2019-05-10T04:46:42.563Z,21.37
2019-05-10T04:49:14.653Z,20.57
2019-05-10T04:51:46.741Z,21.00
2019-05-10T04:54:18.697Z,20.47
2019-05-10T04:56:51.004Z,20.17
2019-05-10T04:59:23.196Z,21.67
2019-05-10T05:01:55.449Z,21.00
2019-05-10T05:04:27.478Z,21.53
2019-05-10T05:06:59.574Z,21.70
2019-05-10T05:09:31.678Z,21.63
2019-05-10T05:12:04.009Z,20.80
2019-05-10T05:14:36.173Z,20.23
2019-05-10T05:17:08.270Z,21.07
2019-05-10T05:19:41.037Z,21.80
2019-05-10T05:22:14.305Z,26.20
2019-05-10T05:24:46.823Z,22.27
2019-05-10T05:27:18.866Z,21.03
2019-05-10T05:29:52.138Z,21.10
2019-05-10T05:32:24.247Z,22.00
2019-05-10T05:34:56.411Z,22.60
2019-05-10T05:37:28.626Z,23.13
2019-05-10T05:40:00.678Z,21.70
2019-05-10T05:42:32.644Z,21.00
2019-05-10T05:45:04.832Z,20.70
2019-05-10T05:47:37.582Z,21.50
2019-05-10T05:50:11.029Z,24.63
2019-05-10T05:52:43.327Z,22.50
2019-05-10T05:55:15.561Z,22.77
2019-05-10T05:57:47.524Z,22.67
2019-05-10T06:00:19.926Z,22.23
2019-05-10T06:02:52.209Z,24.00
2019-05-10T06:05:34.175Z,23.17
2019-05-10T06:07:59.004Z,23.10
2019-05-10T06:10:31.102Z,22.40
2019-05-10T06:13:03.570Z,23.70
2019-05-10T06:15:35.757Z,23.60
2019-05-10T06:18:09.760Z,22.90
2019-05-10T06:20:44.631Z,24.07
2019-05-10T06:23:16.210Z,24.07
2019-05-10T06:25:48.220Z,24.17
2019-05-10T06:28:27.003Z,25.23
2019-05-10T06:30:54.010Z,25.70
2019-05-10T06:33:25.779Z,24.27
2019-05-10T06:35:58.112Z,24.67
2019-05-10T06:38:30.130Z,25.37
2019-05-10T06:41:02.250Z,23.50
2019-05-10T06:43:34.539Z,28.83
2019-05-10T06:46:07.919Z,25.37
2019-05-10T06:48:39.973Z,24.80
2019-05-10T06:51:12.393Z,25.33
2019-05-10T06:53:51.912Z,24.03
2019-05-10T06:56:18.647Z,24.07
2019-05-10T06:58:50.616Z,24.30
2019-05-10T07:01:22.968Z,25.17
2019-05-10T07:03:55.008Z,22.67
2019-05-10T07:06:28.367Z,20.63
2019-05-10T07:09:00.538Z,21.57
2019-05-10T07:11:32.921Z,18.07
2019-05-10T07:14:05.165Z,17.73
2019-05-10T07:16:37.607Z,16.57
2019-05-10T07:19:09.585Z,17.93
2019-05-10T07:21:44.816Z,18.27
2019-05-10T07:24:18.364Z,16.63
2019-05-10T07:26:49.445Z,16.00
2019-05-10T07:29:29.718Z,15.07
2019-05-10T07:31:55.094Z,16.87
2019-05-10T07:34:27.356Z,16.80
2019-05-10T07:37:01.849Z,16.93
2019-05-10T07:39:33.238Z,16.67
2019-05-10T07:42:06.595Z,16.67
2019-05-10T07:44:41.377Z,15.37
2019-05-10T07:47:12.849Z,16.00
2019-05-10T07:49:45.106Z,16.30
2019-05-10T07:52:17.381Z,16.57
2019-05-10T07:54:49.602Z,16.60
2019-05-10T07:57:24.861Z,18.47
2019-05-10T07:59:57.466Z,17.23
2019-05-10T08:02:29.874Z,17.07
2019-05-10T08:05:04.851Z,17.13
2019-05-10T08:07:38.627Z,17.93
2019-05-10T08:10:10.530Z,17.73
2019-05-10T08:12:45.654Z,16.83
2019-05-10T08:15:16.492Z,15.97
2019-05-10T08:17:50.881Z,16.23
2019-05-10T08:20:38.060Z,17.03
2019-05-10T08:22:56.350Z,16.60
2019-05-10T08:25:36.515Z,16.63
2019-05-10T08:28:05.364Z,16.53
2019-05-10T08:30:50.798Z,17.07
2019-05-10T08:33:15.429Z,15.33
2019-05-10T08:35:52.401Z,15.53
2019-05-10T08:38:21.914Z,13.97
2019-05-10T08:40:54.168Z,12.67
2019-05-10T08:43:30.864Z,10.80
2019-05-10T08:45:59.795Z,13.60
2019-05-10T08:48:33.084Z,14.90
2019-05-10T08:51:07.495Z,14.67
2019-05-10T08:53:41.851Z,14.30
2019-05-10T08:56:20.612Z,12.23
2019-05-10T08:58:46.770Z,10.77
2019-05-10T09:01:26.540Z,11.03
2019-05-10T09:03:59.385Z,10.97
2019-05-10T09:06:26.636Z,12.97
2019-05-10T09:09:03.480Z,12.67
2019-05-10T09:11:32.936Z,12.77
2019-05-10T09:14:06.433Z,13.30
2019-05-10T09:16:43.352Z,13.27
2019-05-10T09:19:12.777Z,13.90
2019-05-10T09:21:50.035Z,14.53
2019-05-10T09:24:18.814Z,14.27
2019-05-10T09:26:54.884Z,14.13
2019-05-10T09:29:27.329Z,15.23
2019-05-10T09:32:01.053Z,14.27
2019-05-10T09:34:32.471Z,12.93
2019-05-10T09:37:08.134Z,12.60
2019-05-10T09:39:38.829Z,11.67
2019-05-10T09:42:24.800Z,11.03
2019-05-10T09:44:46.034Z,9.73
2019-05-10T09:47:18.778Z,8.37
2019-05-10T09:49:58.638Z,8.20
2019-05-10T09:52:24.666Z,9.60
2019-05-10T09:54:57.097Z,7.97
2019-05-10T09:57:32.029Z,8.63
2019-05-10T10:00:02.873Z,9.63
2019-05-10T10:02:37.349Z,9.33
2019-05-10T10:05:09.321Z,9.13
2019-05-10T10:07:41.571Z,8.40
2019-05-10T10:10:20.755Z,8.60
2019-05-10T10:12:48.582Z,8.57
2019-05-10T10:15:29.797Z,8.77
2019-05-10T10:17:54.324Z,9.50
2019-05-10T10:20:29.803Z,8.90
2019-05-10T10:23:17.293Z,8.33
2019-05-10T10:25:49.614Z,9.07
2019-05-10T10:28:22.589Z,7.70
2019-05-10T10:30:59.972Z,9.23
2019-05-10T10:33:29.293Z,9.80
2019-05-10T10:36:07.636Z,9.10
2019-05-10T10:38:37.073Z,9.70
2019-05-10T10:41:09.411Z,8.73
2019-05-10T10:43:41.559Z,8.83
2019-05-10T10:46:16.671Z,9.57
2019-05-10T10:48:49.033Z,8.57
2019-05-10T10:51:21.758Z,9.50
2019-05-10T10:53:54.845Z,9.70
2019-05-10T10:56:27.662Z,10.80
2019-05-10T10:58:59.834Z,11.67
2019-05-10T11:01:46.163Z,11.70
2019-05-10T11:04:08.022Z,10.17
2019-05-10T11:06:39.716Z,10.67
2019-05-10T11:09:11.974Z,11.27
2019-05-10T11:11:44.922Z,10.50
2019-05-10T11:14:17.218Z,9.57
2019-05-10T11:16:52.841Z,10.03
2019-05-10T11:19:23.012Z,10.77
2019-05-10T11:21:55.056Z,10.77
2019-05-10T11:24:27.089Z,11.27
2019-05-10T11:27:01.114Z,11.70
2019-05-10T11:29:32.973Z,12.13
2019-05-10T11:32:15.562Z,12.20
2019-05-10T11:34:39.042Z,12.93
2019-05-10T11:37:11.430Z,12.97
2019-05-10T11:39:46.835Z,11.77
2019-05-10T11:42:17.895Z,12.07
2019-05-10T11:44:54.227Z,11.97
2019-05-10T11:47:27.205Z,13.67
2019-05-10T11:49:58.581Z,12.97
2019-05-10T11:52:34.872Z,19.33
2019-05-10T11:55:04.974Z,12.50
2019-05-10T11:57:42.910Z,13.30
2019-05-10T12:00:24.301Z,12.97
2019-05-10T12:03:03.390Z,12.83
2019-05-10T12:05:22.663Z,13.23
2019-05-10T12:07:54.699Z,12.57
2019-05-10T12:10:26.987Z,16.30
2019-05-10T12:13:10.911Z,16.50
2019-05-10T12:15:33.179Z,16.03
2019-05-10T12:18:05.323Z,15.10
2019-05-10T12:20:52.095Z,16.53
2019-05-10T12:23:13.415Z,19.33
2019-05-10T12:25:59.213Z,20.87
2019-05-10T12:28:24.557Z,21.47
2019-05-10T12:30:52.921Z,21.90
2019-05-10T12:33:27.717Z,23.47
2019-05-10T12:36:00.480Z,22.10
2019-05-10T12:38:35.679Z,22.33
2019-05-10T12:41:06.409Z,21.30
2019-05-10T12:43:43.103Z,20.13
2019-05-10T12:46:12.689Z,21.50
2019-05-10T12:48:45.383Z,20.93
2019-05-10T12:51:17.626Z,22.10
2019-05-10T12:53:52.074Z,21.47
2019-05-10T12:56:23.655Z,21.90
2019-05-10T12:58:59.305Z,21.90
2019-05-10T13:01:31.750Z,21.53
2019-05-10T13:04:13.737Z,21.13
2019-05-10T13:06:38.434Z,22.60
2019-05-10T13:09:10.530Z,22.83
2019-05-10T13:11:42.949Z,22.57
2019-05-10T13:14:16.719Z,22.57
2019-05-10T13:16:48.859Z,23.13
2019-05-10T13:19:21.725Z,23.40
2019-05-10T13:21:58.631Z,24.43
2019-05-10T13:24:27.768Z,23.93
2019-05-10T13:27:03.453Z,22.60
2019-05-10T13:29:33.610Z,22.47
2019-05-10T13:32:05.958Z,21.67
2019-05-10T13:34:38.149Z,24.60
2019-05-10T13:37:13.633Z,23.63
2019-05-10T13:39:44.483Z,19.30
2019-05-10T13:42:16.733Z,19.67
2019-05-10T13:44:49.021Z,19.50
2019-05-10T13:47:21.388Z,21.00
2019-05-10T13:49:53.842Z,21.27
2019-05-10T13:52:29.903Z,21.30
2019-05-10T13:54:59.936Z,21.07
2019-05-10T13:57:36.213Z,21.80
2019-05-10T14:00:09.083Z,20.70
2019-05-10T14:02:41.466Z,19.73
2019-05-10T14:05:17.603Z,20.60
2019-05-10T14:07:51.828Z,20.60
2019-05-10T14:10:23.250Z,20.13
2019-05-10T14:13:02.119Z,20.53
2019-05-10T14:15:30.365Z,21.27
2019-05-10T14:18:02.284Z,22.83
2019-05-10T14:20:34.731Z,23.10
2019-05-10T14:23:06.910Z,22.53
2019-05-10T14:25:39.258Z,22.63
2019-05-10T14:28:18.168Z,22.17
2019-05-10T14:30:57.196Z,22.83
2019-05-10T14:33:25.418Z,20.23
2019-05-10T14:36:00.802Z,21.30
2019-05-10T14:38:31.133Z,21.50
2019-05-10T14:41:10.764Z,23.33
2019-05-10T14:43:37.127Z,22.47
2019-05-10T14:46:13.685Z,22.80
2019-05-10T14:48:43.535Z,22.13
2019-05-10T14:51:15.978Z,22.43
2019-05-10T14:53:48.100Z,25.23
2019-05-10T14:56:20.450Z,22.53
2019-05-10T14:58:52.682Z,21.67
2019-05-10T15:01:25.031Z,23.63
2019-05-10T15:03:57.161Z,22.97
2019-05-10T15:06:30.692Z,22.67
2019-05-10T15:09:04.630Z,22.87
2019-05-10T15:11:37.154Z,23.33
2019-05-10T15:14:14.929Z,22.20
2019-05-10T15:16:47.406Z,22.63
2019-05-10T15:19:19.634Z,21.87
2019-05-10T15:21:51.964Z,21.90
2019-05-10T15:24:24.130Z,22.50
2019-05-10T15:26:56.413Z,24.57
2019-05-10T15:29:28.438Z,21.57
2019-05-10T15:32:00.657Z,22.30
2019-05-10T15:34:32.808Z,21.67
2019-05-10T15:37:09.138Z,23.13
2019-05-10T15:39:38.782Z,21.80
2019-05-10T15:42:11.075Z,22.43
2019-05-10T15:44:43.560Z,22.27
2019-05-10T15:47:20.468Z,24.93
2019-05-10T15:49:54.424Z,24.20
2019-05-10T15:52:23.754Z,21.93
2019-05-10T15:54:55.974Z,21.90
2019-05-10T15:57:32.283Z,21.40
2019-05-10T16:00:02.783Z,21.33
2019-05-10T16:02:36.224Z,22.13
2019-05-10T16:05:23.309Z,22.53
2019-05-10T16:07:46.512Z,23.97
2019-05-10T16:10:16.430Z,22.30
2019-05-10T16:12:48.653Z,20.90
2019-05-10T16:15:21.404Z,23.30
2019-05-10T16:17:59.077Z,24.10
2019-05-10T16:20:31.635Z,22.27
2019-05-10T16:23:02.771Z,23.70
2019-05-10T16:25:41.852Z,22.60
2019-05-10T16:28:08.562Z,20.60
2019-05-10T16:30:40.940Z,21.63
2019-05-10T16:33:15.624Z,19.60
2019-05-10T16:35:49.497Z,18.47
2019-05-10T16:38:21.494Z,18.23
2019-05-10T16:40:58.723Z,17.77
2019-05-10T16:43:27.635Z,17.23
2019-05-10T16:46:01.027Z,18.43
2019-05-10T16:48:33.346Z,18.20
2019-05-10T16:51:09.941Z,18.13
2019-05-10T16:53:43.999Z,17.47
2019-05-10T16:56:18.046Z,18.10
2019-05-10T16:58:52.978Z,16.73
2019-05-10T17:01:25.284Z,17.23
2019-05-10T17:03:59.853Z,15.33
2019-05-10T17:06:28.659Z,15.10
2019-05-10T17:09:00.982Z,15.67
2019-05-10T17:11:33.357Z,15.57
2019-05-10T17:14:05.590Z,17.83
2019-05-10T17:16:37.717Z,16.67
2019-05-10T17:19:09.949Z,16.03
2019-05-10T17:21:42.125Z,15.77
2019-05-10T17:24:18.672Z,17.80
2019-05-10T17:26:47.855Z,16.63
2019-05-10T17:29:20.473Z,16.37
2019-05-10T17:31:52.820Z,16.23
2019-05-10T17:34:29.452Z,16.17
2019-05-10T17:36:59.806Z,16.43
2019-05-10T17:39:34.143Z,17.27
2019-05-10T17:42:06.418Z,18.90
2019-05-10T17:44:38.554Z,16.90
2019-05-10T17:47:10.864Z,20.53
2019-05-10T17:49:43.083Z,23.80
2019-05-10T17:52:15.282Z,19.20
2019-05-10T17:54:47.336Z,21.23
2019-05-10T17:57:19.495Z,26.90
2019-05-10T17:59:52.807Z,21.70
2019-05-10T18:02:25.369Z,20.63
2019-05-10T18:04:59.722Z,19.93
2019-05-10T18:07:32.133Z,20.27
2019-05-10T18:10:04.460Z,20.83
2019-05-10T18:12:36.750Z,19.73
2019-05-10T18:15:09.948Z,19.77
2019-05-10T18:17:42.035Z,19.03
2019-05-10T18:20:14.465Z,18.47
2019-05-10T18:22:46.625Z,20.50
2019-05-10T18:25:20.372Z,24.25
2019-05-10T18:27:53.817Z,21.30
2019-05-10T18:30:25.865Z,23.47
2019-05-10T18:32:58.028Z,21.80
2019-05-10T18:35:30.425Z,21.50
2019-05-10T18:38:02.457Z,22.63
2019-05-10T18:40:34.728Z,21.80
2019-05-10T18:43:06.838Z,23.67
2019-05-10T18:45:38.863Z,25.10
2019-05-10T18:48:11.077Z,26.33
2019-05-10T18:50:45.246Z,24.47
2019-05-10T18:53:16.665Z,25.33
2019-05-10T18:55:48.691Z,26.60
2019-05-10T18:58:23.301Z,27.17
2019-05-10T19:01:00.177Z,25.80
2019-05-10T19:03:33.447Z,32.83
2019-05-10T19:06:04.069Z,29.93
2019-05-10T19:08:35.328Z,27.13
2019-05-10T19:11:07.514Z,28.60
2019-05-10T19:13:46.951Z,27.73
2019-05-10T19:16:13.822Z,26.70
2019-05-10T19:18:46.036Z,28.20
2019-05-10T19:21:17.975Z,27.87
2019-05-10T19:23:52.178Z,24.30
2019-05-10T19:26:23.905Z,26.23
2019-05-10T19:28:58.843Z,26.63
2019-05-10T19:31:31.848Z,30.60
2019-05-10T19:34:09.122Z,25.90
2019-05-10T19:36:38.755Z,26.67
2019-05-10T19:39:10.634Z,29.60
2019-05-10T19:41:42.433Z,26.80
2019-05-10T19:44:14.285Z,28.83
2019-05-10T19:46:46.095Z,28.73
2019-05-10T19:49:19.370Z,29.47
2019-05-10T19:51:51.553Z,29.87
2019-05-10T19:54:24.415Z,27.70
2019-05-10T19:56:56.195Z,27.43
2019-05-10T19:59:30.955Z,26.80
2019-05-10T20:02:02.602Z,29.13
2019-05-10T20:04:34.635Z,26.13
2019-05-10T20:07:06.835Z,30.67
2019-05-10T20:09:38.676Z,28.23
2019-05-10T20:12:10.716Z,28.60
2019-05-10T20:14:42.685Z,29.83
2019-05-10T20:17:14.819Z,29.30
2019-05-10T20:19:48.114Z,33.50
2019-05-10T20:22:20.504Z,36.60
2019-05-10T20:24:52.195Z,30.00
2019-05-10T20:27:23.907Z,45.50
2019-05-10T20:29:55.735Z,33.47
2019-05-10T20:32:27.437Z,29.90
2019-05-10T20:34:59.210Z,32.67
2019-05-10T20:37:31.056Z,28.67
2019-05-10T20:40:02.985Z,28.47
2019-05-10T20:42:34.826Z,28.03
2019-05-10T20:45:08.580Z,30.23
2019-05-10T20:47:42.265Z,27.87
2019-05-10T20:50:14.304Z,28.90
2019-05-10T20:52:47.745Z,28.80
2019-05-10T20:55:19.915Z,30.83
2019-05-10T20:57:52.033Z,30.00
2019-05-10T21:00:24.334Z,28.37
2019-05-10T21:02:56.246Z,26.57
2019-05-10T21:05:28.435Z,32.73
2019-05-10T21:08:15.817Z,28.27
2019-05-10T21:10:34.110Z,28.00
2019-05-10T21:13:05.997Z,27.23
2019-05-10T21:15:38.322Z,25.77
2019-05-10T21:18:10.416Z,28.37
2019-05-10T21:20:42.560Z,28.87
2019-05-10T21:23:14.984Z,30.50
2019-05-10T21:25:47.116Z,29.87
2019-05-10T21:28:19.285Z,28.37
2019-05-10T21:30:53.413Z,32.03
2019-05-10T21:33:24.940Z,29.30
2019-05-10T21:35:57.089Z,28.30
2019-05-10T21:38:32.877Z,28.07
2019-05-10T21:41:03.030Z,25.77
2019-05-10T21:43:35.104Z,26.00
2019-05-10T21:46:07.358Z,25.63
2019-05-10T21:48:39.427Z,26.50
2019-05-10T21:51:11.847Z,28.40
2019-05-10T21:53:43.801Z,26.53
2019-05-10T21:56:15.818Z,26.80
2019-05-10T21:58:48.014Z,28.43
2019-05-10T22:01:20.451Z,27.07
2019-05-10T22:03:52.790Z,27.60
2019-05-10T22:06:25.022Z,28.20
2019-05-10T22:08:57.374Z,29.13
2019-05-10T22:11:29.561Z,29.27
2019-05-10T22:14:02.116Z,30.47
2019-05-10T22:16:35.786Z,30.03
2019-05-10T22:19:07.775Z,30.70
2019-05-10T22:21:40.042Z,31.90
2019-05-10T22:24:12.181Z,28.87
2019-05-10T22:26:44.511Z,29.60
2019-05-10T22:29:16.768Z,31.30
2019-05-10T22:31:49.243Z,31.87
2019-05-10T22:34:21.675Z,34.67
2019-05-10T22:36:53.966Z,33.93
2019-05-10T22:39:26.465Z,33.80
2019-05-10T22:41:58.706Z,33.57
2019-05-10T22:44:31.137Z,33.87
2019-05-10T22:47:04.030Z,34.13
2019-05-10T22:49:37.316Z,34.80
2019-05-10T22:52:10.251Z,36.73
2019-05-10T22:54:42.443Z,36.83
2019-05-10T22:57:14.771Z,36.33
2019-05-10T22:59:47.122Z,37.43
2019-05-10T23:02:19.552Z,37.30
2019-05-10T23:04:51.730Z,38.03
2019-05-10T23:07:24.179Z,39.70
2019-05-10T23:09:56.230Z,36.77
2019-05-10T23:12:28.280Z,36.93
2019-05-10T23:15:00.375Z,35.53
2019-05-10T23:17:33.153Z,35.37
2019-05-10T23:20:05.794Z,35.77
2019-05-10T23:22:37.830Z,33.23
2019-05-10T23:25:09.985Z,34.10
2019-05-10T23:27:43.548Z,34.37
2019-05-10T23:30:15.802Z,34.17
2019-05-10T23:32:48.046Z,34.13
2019-05-10T23:35:19.907Z,32.70
2019-05-10T23:37:52.166Z,33.83
2019-05-10T23:40:24.891Z,33.37
2019-05-10T23:42:57.026Z,32.93
2019-05-10T23:45:29.321Z,33.67
2019-05-10T23:48:01.332Z,34.20
2019-05-10T23:50:33.790Z,32.63
2019-05-10T23:53:05.894Z,30.97
2019-05-10T23:55:37.868Z,29.83
2019-05-10T23:58:09.956Z,32.93
